createdAt,value
2018-07-15T00:00:35.204Z,19.34
2018-07-15T00:02:47.720Z,19.27
2018-07-15T00:05:00.139Z,19.24
2018-07-15T00:07:12.555Z,19.14
2018-07-15T00:09:24.999Z,19.10
2018-07-15T00:11:37.383Z,19.04
2018-07-15T00:13:49.766Z,19.02
2018-07-15T00:16:02.126Z,18.89
2018-07-15T00:18:14.506Z,18.72
2018-07-15T00:20:26.842Z,18.65
2018-07-15T00:22:39.230Z,18.62
2018-07-15T00:24:51.534Z,18.54
2018-07-15T00:27:03.929Z,18.56
2018-07-15T00:29:16.299Z,18.53
2018-07-15T00:31:28.879Z,18.62
2018-07-15T00:33:41.254Z,18.71
2018-07-15T00:35:53.688Z,18.78
2018-07-15T00:38:06.362Z,18.85
2018-07-15T00:40:18.956Z,18.93
2018-07-15T00:42:31.475Z,18.94
2018-07-15T00:44:43.990Z,18.85
2018-07-15T00:46:56.367Z,18.81
2018-07-15T00:49:08.701Z,18.77
2018-07-15T00:51:21.215Z,18.69
2018-07-15T00:53:33.606Z,18.64
2018-07-15T00:55:46.071Z,18.65
2018-07-15T00:57:58.575Z,18.66
2018-07-15T01:00:10.974Z,18.70
2018-07-15T01:02:23.458Z,18.78
2018-07-15T01:04:35.858Z,18.94
2018-07-15T01:06:48.246Z,19.09
2018-07-15T01:09:00.753Z,19.16
2018-07-15T01:11:19.874Z,19.16
2018-07-15T01:13:32.285Z,19.10
2018-07-15T01:15:44.667Z,19.07
2018-07-15T01:17:57.038Z,19.07
2018-07-15T01:20:09.480Z,19.10
2018-07-15T01:22:21.837Z,19.09
2018-07-15T01:24:34.300Z,19.07
2018-07-15T01:26:46.703Z,19.07
2018-07-15T01:28:59.113Z,18.94
2018-07-15T01:31:11.488Z,18.84
2018-07-15T01:33:23.966Z,18.77
2018-07-15T01:35:36.307Z,18.71
2018-07-15T01:37:48.668Z,18.71
2018-07-15T01:40:01.003Z,18.67
2018-07-15T01:42:13.398Z,18.70
2018-07-15T01:44:25.710Z,18.73
2018-07-15T01:46:38.097Z,18.78
2018-07-15T01:48:50.569Z,18.82
2018-07-15T01:51:03.146Z,18.78
2018-07-15T01:53:15.507Z,18.71
2018-07-15T01:55:27.904Z,18.70
2018-07-15T01:57:40.287Z,18.65
2018-07-15T01:59:52.807Z,18.60
2018-07-15T02:02:05.257Z,18.54
2018-07-15T02:04:17.603Z,18.49
2018-07-15T02:06:29.963Z,18.46
2018-07-15T02:08:42.342Z,18.44
2018-07-15T02:10:55.019Z,18.34
2018-07-15T02:13:07.442Z,18.32
2018-07-15T02:15:19.814Z,18.34
2018-07-15T02:17:32.167Z,18.29
2018-07-15T02:19:44.599Z,18.16
2018-07-15T02:21:56.958Z,18.12
2018-07-15T02:24:09.566Z,18.15
2018-07-15T02:26:22.031Z,18.13
2018-07-15T02:28:34.463Z,17.98
2018-07-15T02:30:46.866Z,17.84
2018-07-15T02:32:59.206Z,17.81
2018-07-15T02:35:11.630Z,17.81
2018-07-15T02:37:24.014Z,17.84
2018-07-15T02:39:36.443Z,17.88
2018-07-15T02:41:48.798Z,17.93
2018-07-15T02:44:01.199Z,17.88
2018-07-15T02:46:13.612Z,17.83
2018-07-15T02:48:26.135Z,17.81
2018-07-15T02:50:38.670Z,17.81
2018-07-15T02:52:51.229Z,17.76
2018-07-15T02:55:03.731Z,17.72
2018-07-15T02:57:16.134Z,17.63
2018-07-15T02:59:28.504Z,17.58
2018-07-15T03:01:40.929Z,17.63
2018-07-15T03:03:53.304Z,17.61
2018-07-15T03:06:05.820Z,17.57
2018-07-15T03:08:18.138Z,17.54
2018-07-15T03:10:30.522Z,17.47
2018-07-15T03:12:42.943Z,17.44
2018-07-15T03:14:55.664Z,17.45
2018-07-15T03:17:08.090Z,17.50
2018-07-15T03:19:20.435Z,17.47
2018-07-15T03:21:32.847Z,17.46
2018-07-15T03:23:45.266Z,17.48
2018-07-15T03:25:57.639Z,17.50
2018-07-15T03:28:10.024Z,17.51
2018-07-15T03:30:22.404Z,17.47
2018-07-15T03:32:34.853Z,17.48
2018-07-15T03:34:47.203Z,17.52
2018-07-15T03:36:59.508Z,17.54
2018-07-15T03:39:12.022Z,17.47
2018-07-15T03:41:24.426Z,17.37
2018-07-15T03:43:36.851Z,17.28
2018-07-15T03:45:49.381Z,17.18
2018-07-15T03:48:01.735Z,17.07
2018-07-15T03:50:14.266Z,17.00
2018-07-15T03:52:26.663Z,16.93
2018-07-15T03:54:39.085Z,16.92
2018-07-15T03:56:51.524Z,16.90
2018-07-15T03:59:03.928Z,16.92
2018-07-15T04:01:16.383Z,16.93
2018-07-15T04:03:28.743Z,16.98
2018-07-15T04:05:41.229Z,16.99
2018-07-15T04:07:53.578Z,16.99
2018-07-15T04:10:05.995Z,17.06
2018-07-15T04:12:18.430Z,17.15
2018-07-15T04:14:30.802Z,17.21
2018-07-15T04:16:43.229Z,17.26
2018-07-15T04:18:55.578Z,17.30
2018-07-15T04:21:08.032Z,17.33
2018-07-15T04:23:20.628Z,17.37
2018-07-15T04:25:33.739Z,17.43
2018-07-15T04:27:46.147Z,17.48
2018-07-15T04:29:58.607Z,17.56
2018-07-15T04:32:11.285Z,17.67
2018-07-15T04:34:23.610Z,17.77
2018-07-15T04:36:35.979Z,17.89
2018-07-15T04:38:48.448Z,18.02
2018-07-15T04:41:00.858Z,18.16
2018-07-15T04:43:13.262Z,18.33
2018-07-15T04:45:25.737Z,18.48
2018-07-15T04:47:38.118Z,18.55
2018-07-15T04:49:50.442Z,18.65
2018-07-15T04:52:02.897Z,18.76
2018-07-15T04:54:15.343Z,18.78
2018-07-15T04:56:27.698Z,18.74
2018-07-15T04:58:40.057Z,18.71
2018-07-15T05:00:52.578Z,18.76
2018-07-15T05:03:05.026Z,18.78
2018-07-15T05:05:17.565Z,18.84
2018-07-15T05:07:29.947Z,18.93
2018-07-15T05:09:42.397Z,19.08
2018-07-15T05:11:54.758Z,19.21
2018-07-15T05:14:07.916Z,19.34
2018-07-15T05:16:20.367Z,19.48
2018-07-15T05:18:32.779Z,19.66
2018-07-15T05:20:45.333Z,19.80
2018-07-15T05:22:57.685Z,19.97
2018-07-15T05:25:10.162Z,20.14
2018-07-15T05:27:22.677Z,20.26
2018-07-15T05:29:35.015Z,20.39
2018-07-15T05:31:47.434Z,20.44
2018-07-15T05:33:59.822Z,20.54
2018-07-15T05:36:12.198Z,20.62
2018-07-15T05:38:24.604Z,20.71
2018-07-15T05:40:37.177Z,20.79
2018-07-15T05:42:49.519Z,20.92
2018-07-15T05:45:01.839Z,21.08
2018-07-15T05:47:14.318Z,21.18
2018-07-15T05:49:26.762Z,21.33
2018-07-15T05:51:39.147Z,21.41
2018-07-15T05:53:51.543Z,21.48
2018-07-15T05:56:03.972Z,21.60
2018-07-15T05:58:16.325Z,21.69
2018-07-15T06:00:29.005Z,21.78
2018-07-15T06:02:41.431Z,21.85
2018-07-15T06:04:53.816Z,21.99
2018-07-15T06:07:06.191Z,22.16
2018-07-15T06:09:18.528Z,22.36
2018-07-15T06:11:31.020Z,22.52
2018-07-15T06:13:43.462Z,22.64
2018-07-15T06:15:55.826Z,22.81
2018-07-15T06:18:08.190Z,22.99
2018-07-15T06:20:20.751Z,23.07
2018-07-15T06:22:33.268Z,23.11
2018-07-15T06:24:45.633Z,23.24
2018-07-15T06:26:57.947Z,23.43
2018-07-15T06:29:10.302Z,23.59
2018-07-15T06:31:22.610Z,23.74
2018-07-15T06:33:35.021Z,23.84
2018-07-15T06:35:47.349Z,23.98
2018-07-15T06:37:59.823Z,24.10
2018-07-15T06:40:12.283Z,24.26
2018-07-15T06:42:24.613Z,24.44
2018-07-15T06:44:37.030Z,24.58
2018-07-15T06:46:49.491Z,24.70
2018-07-15T06:49:01.836Z,24.77
2018-07-15T06:51:14.243Z,24.82
2018-07-15T06:53:26.823Z,24.85
2018-07-15T06:55:39.224Z,24.95
2018-07-15T06:57:51.567Z,25.06
2018-07-15T07:00:04.143Z,25.22
2018-07-15T07:02:16.642Z,25.37
2018-07-15T07:04:29.030Z,25.54
2018-07-15T07:06:41.424Z,25.70
2018-07-15T07:08:53.987Z,25.83
2018-07-15T07:11:06.394Z,25.97
2018-07-15T07:13:18.730Z,26.09
2018-07-15T07:15:31.125Z,26.28
2018-07-15T07:17:43.554Z,26.30
2018-07-15T07:19:55.874Z,26.40
2018-07-15T07:22:08.295Z,26.43
2018-07-15T07:24:20.729Z,26.47
2018-07-15T07:26:33.226Z,26.44
2018-07-15T07:28:45.641Z,26.29
2018-07-15T07:30:58.074Z,26.13
2018-07-15T07:33:10.590Z,26.12
2018-07-15T07:35:23.001Z,26.15
2018-07-15T07:37:35.470Z,26.23
2018-07-15T07:39:47.786Z,26.27
2018-07-15T07:42:00.307Z,26.43
2018-07-15T07:44:12.630Z,26.60
2018-07-15T07:46:25.071Z,26.65
2018-07-15T07:48:37.487Z,26.71
2018-07-15T07:50:49.890Z,26.82
2018-07-15T07:53:02.258Z,26.99
2018-07-15T07:55:14.618Z,27.15
2018-07-15T07:57:27.145Z,27.37
2018-07-15T07:59:39.497Z,27.58
2018-07-15T08:01:52.035Z,27.73
2018-07-15T08:04:04.338Z,27.95
2018-07-15T08:06:16.686Z,28.07
2018-07-15T08:08:29.091Z,27.99
2018-07-15T08:10:41.445Z,27.98
2018-07-15T08:12:53.883Z,27.98
2018-07-15T08:15:06.323Z,27.79
2018-07-15T08:17:18.662Z,27.63
2018-07-15T08:19:31.055Z,27.44
2018-07-15T08:21:43.479Z,27.33
2018-07-15T08:23:55.946Z,27.27
2018-07-15T08:26:08.516Z,27.36
2018-07-15T08:28:20.948Z,27.56
2018-07-15T08:30:44.701Z,27.77
2018-07-15T08:32:57.002Z,27.90
2018-07-15T08:35:09.345Z,28.01
2018-07-15T08:37:21.702Z,27.82
2018-07-15T08:39:34.104Z,27.83
2018-07-15T08:41:46.564Z,27.74
2018-07-15T08:43:58.943Z,27.68
2018-07-15T08:46:11.417Z,27.58
2018-07-15T08:48:23.821Z,27.36
2018-07-15T08:50:36.198Z,27.21
2018-07-15T08:52:48.697Z,27.15
2018-07-15T08:55:01.086Z,27.04
2018-07-15T08:57:13.500Z,26.95
2018-07-15T08:59:25.933Z,26.92
2018-07-15T09:01:38.549Z,26.87
2018-07-15T09:03:50.887Z,26.87
2018-07-15T09:06:03.303Z,26.85
2018-07-15T09:08:15.626Z,26.87
2018-07-15T09:10:28.319Z,26.81
2018-07-15T09:12:40.871Z,26.82
2018-07-15T09:14:53.263Z,26.87
2018-07-15T09:17:05.654Z,27.02
2018-07-15T09:19:18.052Z,27.09
2018-07-15T09:21:30.445Z,27.20
2018-07-15T09:23:42.801Z,27.31
2018-07-15T09:25:55.114Z,27.44
2018-07-15T09:28:07.572Z,27.65
2018-07-15T09:30:19.990Z,27.89
2018-07-15T09:32:32.438Z,28.08
2018-07-15T09:34:44.838Z,28.20
2018-07-15T09:36:57.266Z,28.21
2018-07-15T09:39:09.642Z,28.38
2018-07-15T09:41:22.176Z,28.50
2018-07-15T09:43:34.594Z,28.76
2018-07-15T09:45:46.935Z,29.03
2018-07-15T09:47:59.338Z,29.17
2018-07-15T09:50:11.830Z,29.33
2018-07-15T09:52:24.276Z,29.54
2018-07-15T09:54:36.695Z,29.68
2018-07-15T09:56:49.123Z,29.78
2018-07-15T09:59:01.832Z,29.97
2018-07-15T10:01:14.219Z,30.09
2018-07-15T10:03:27.476Z,30.27
2018-07-15T10:05:39.865Z,30.41
2018-07-15T10:07:52.282Z,30.48
2018-07-15T10:10:04.682Z,30.50
2018-07-15T10:12:17.098Z,30.56
2018-07-15T10:14:29.597Z,30.66
2018-07-15T10:16:41.955Z,30.77
2018-07-15T10:18:54.344Z,30.87
2018-07-15T10:21:06.710Z,30.97
2018-07-15T10:23:19.087Z,31.11
2018-07-15T10:25:31.477Z,31.14
2018-07-15T10:27:43.929Z,31.24
2018-07-15T10:29:56.635Z,31.35
2018-07-15T10:32:09.039Z,31.37
2018-07-15T10:34:21.455Z,31.37
2018-07-15T10:36:33.906Z,31.36
2018-07-15T10:38:46.258Z,31.47
2018-07-15T10:40:58.920Z,31.49
2018-07-15T10:43:11.381Z,31.44
2018-07-15T10:45:23.857Z,31.46
2018-07-15T10:47:36.546Z,31.51
2018-07-15T10:49:49.015Z,31.51
2018-07-15T10:52:01.378Z,31.37
2018-07-15T10:54:13.818Z,31.27
2018-07-15T10:56:26.307Z,31.18
2018-07-15T10:58:38.784Z,31.12
2018-07-15T11:00:51.199Z,31.09
2018-07-15T11:03:03.613Z,31.16
2018-07-15T11:05:15.990Z,31.20
2018-07-15T11:07:28.342Z,31.16
2018-07-15T11:09:40.822Z,31.13
2018-07-15T11:11:53.234Z,31.07
2018-07-15T11:14:05.781Z,30.82
2018-07-15T11:16:18.197Z,30.58
2018-07-15T11:18:30.523Z,30.41
2018-07-15T11:20:42.989Z,30.26
2018-07-15T11:22:55.357Z,30.11
2018-07-15T11:25:07.747Z,29.98
2018-07-15T11:27:20.147Z,29.78
2018-07-15T11:29:32.549Z,29.71
2018-07-15T11:31:44.977Z,29.59
2018-07-15T11:33:57.413Z,29.57
2018-07-15T11:36:09.834Z,29.48
2018-07-15T11:38:22.285Z,29.38
2018-07-15T11:40:34.810Z,29.30
2018-07-15T11:42:47.210Z,29.30
2018-07-15T11:44:59.552Z,29.10
2018-07-15T11:47:11.972Z,29.09
2018-07-15T11:49:24.438Z,29.00
2018-07-15T11:51:36.934Z,28.93
2018-07-15T11:53:50.258Z,28.95
2018-07-15T11:56:02.718Z,28.93
2018-07-15T11:58:15.082Z,28.86
2018-07-15T12:00:27.500Z,28.78
2018-07-15T12:02:39.919Z,28.71
2018-07-15T12:04:52.254Z,28.72
2018-07-15T12:07:04.895Z,28.62
2018-07-15T12:09:17.956Z,28.58
2018-07-15T12:11:30.412Z,28.46
2018-07-15T12:13:42.786Z,28.39
2018-07-15T12:15:55.132Z,28.31
2018-07-15T12:18:07.930Z,28.27
2018-07-15T12:20:20.378Z,28.21
2018-07-15T12:22:32.755Z,28.18
2018-07-15T12:24:45.181Z,28.13
2018-07-15T12:26:57.559Z,27.97
2018-07-15T12:29:09.910Z,27.91
2018-07-15T12:31:22.274Z,27.77
2018-07-15T12:33:34.651Z,27.67
2018-07-15T12:35:47.033Z,27.57
2018-07-15T12:37:59.426Z,27.47
2018-07-15T12:40:11.836Z,27.40
2018-07-15T12:42:24.230Z,27.22
2018-07-15T12:44:38.252Z,27.08
2018-07-15T12:46:58.935Z,27.03
2018-07-15T12:49:20.168Z,26.97
2018-07-15T12:51:33.069Z,26.95
2018-07-15T12:53:47.130Z,26.80
2018-07-15T12:55:59.503Z,26.85
2018-07-15T12:58:12.404Z,26.83
2018-07-15T13:00:25.909Z,26.78
2018-07-15T13:02:41.741Z,26.59
2018-07-15T13:04:54.178Z,26.39
2018-07-15T13:07:06.546Z,26.01
2018-07-15T13:09:19.022Z,25.99
2018-07-15T13:11:31.414Z,26.01
2018-07-15T13:13:43.885Z,25.94
2018-07-15T13:15:56.322Z,25.93
2018-07-15T13:18:08.714Z,25.97
2018-07-15T13:20:21.070Z,25.93
2018-07-15T13:22:33.650Z,25.99
2018-07-15T13:24:46.077Z,26.27
2018-07-15T13:26:58.548Z,26.43
2018-07-15T13:29:10.939Z,26.44
2018-07-15T13:31:23.350Z,26.48
2018-07-15T13:33:35.787Z,26.69
2018-07-15T13:35:48.123Z,27.03
2018-07-15T13:38:00.512Z,27.31
2018-07-15T13:40:12.922Z,27.42
2018-07-15T13:42:25.333Z,27.46
2018-07-15T13:44:37.766Z,27.44
2018-07-15T13:46:50.236Z,27.52
2018-07-15T13:49:02.718Z,27.50
2018-07-15T13:51:15.155Z,27.37
2018-07-15T13:53:27.514Z,27.16
2018-07-15T13:55:40.380Z,27.11
2018-07-15T13:57:52.845Z,26.93
2018-07-15T14:00:06.430Z,26.66
2018-07-15T14:02:18.777Z,26.53
2018-07-15T14:04:31.213Z,26.31
2018-07-15T14:06:43.659Z,26.25
2018-07-15T14:08:56.126Z,26.12
2018-07-15T14:11:09.365Z,25.95
2018-07-15T14:13:21.747Z,25.74
2018-07-15T14:15:34.269Z,25.54
2018-07-15T14:17:46.653Z,25.47
2018-07-15T14:19:59.166Z,25.55
2018-07-15T14:22:11.593Z,25.70
2018-07-15T14:24:23.904Z,25.81
2018-07-15T14:26:36.443Z,25.83
2018-07-15T14:28:48.887Z,25.75
2018-07-15T14:31:01.239Z,25.77
2018-07-15T14:33:13.642Z,25.88
2018-07-15T14:35:25.993Z,25.90
2018-07-15T14:37:39.546Z,25.99
2018-07-15T14:39:51.883Z,25.95
2018-07-15T14:42:04.655Z,25.94
2018-07-15T14:44:17.035Z,26.12
2018-07-15T14:46:29.389Z,26.31
2018-07-15T14:48:41.739Z,26.46
2018-07-15T14:50:54.113Z,26.45
2018-07-15T14:53:06.554Z,26.42
2018-07-15T14:55:18.954Z,26.48
2018-07-15T14:57:31.339Z,26.50
2018-07-15T14:59:43.852Z,26.55
2018-07-15T15:01:56.257Z,26.58
2018-07-15T15:04:08.773Z,26.70
2018-07-15T15:06:21.133Z,26.67
2018-07-15T15:08:33.539Z,26.52
2018-07-15T15:10:46.002Z,26.40
2018-07-15T15:12:58.540Z,26.37
2018-07-15T15:15:10.870Z,26.34
2018-07-15T15:17:23.358Z,26.33
2018-07-15T15:19:35.705Z,26.27
2018-07-15T15:21:48.051Z,26.22
2018-07-15T15:24:00.555Z,26.21
2018-07-15T15:26:12.893Z,26.27
2018-07-15T15:28:25.494Z,26.23
2018-07-15T15:30:37.917Z,26.24
2018-07-15T15:32:50.374Z,26.29
2018-07-15T15:35:02.899Z,26.31
2018-07-15T15:37:15.446Z,26.37
2018-07-15T15:39:28.013Z,26.42
2018-07-15T15:41:41.090Z,26.49
2018-07-15T15:43:54.299Z,26.62
2018-07-15T15:46:06.729Z,26.57
2018-07-15T15:48:19.134Z,26.45
2018-07-15T15:50:31.562Z,26.42
2018-07-15T15:52:44.151Z,26.28
2018-07-15T15:54:57.151Z,26.28
2018-07-15T15:57:09.522Z,26.31
2018-07-15T15:59:21.919Z,26.39
2018-07-15T16:01:34.322Z,26.37
2018-07-15T16:03:46.714Z,26.36
2018-07-15T16:05:59.057Z,26.38
2018-07-15T16:08:12.180Z,26.30
2018-07-15T16:10:26.525Z,26.21
2018-07-15T16:12:38.852Z,26.14
2018-07-15T16:14:51.162Z,26.12
2018-07-15T16:17:03.675Z,26.05
2018-07-15T16:19:16.142Z,26.01
2018-07-15T16:21:28.654Z,25.97
2018-07-15T16:23:41.347Z,26.00
2018-07-15T16:25:53.736Z,25.96
2018-07-15T16:28:06.220Z,25.96
2018-07-15T16:30:18.566Z,25.91
2018-07-15T16:32:31.093Z,25.91
2018-07-15T16:34:43.549Z,25.88
2018-07-15T16:36:56.128Z,25.81
2018-07-15T16:39:08.889Z,25.77
2018-07-15T16:41:21.193Z,25.78
2018-07-15T16:43:33.603Z,25.78
2018-07-15T16:45:45.955Z,25.71
2018-07-15T16:47:58.376Z,25.66
2018-07-15T16:50:10.784Z,25.67
2018-07-15T16:52:23.381Z,25.66
2018-07-15T16:54:35.753Z,25.67
2018-07-15T16:56:48.145Z,25.64
2018-07-15T16:59:00.485Z,25.63
2018-07-15T17:01:12.875Z,25.58
2018-07-15T17:03:25.229Z,25.51
2018-07-15T17:05:37.820Z,25.45
2018-07-15T17:07:50.240Z,25.41
2018-07-15T17:10:02.729Z,25.37
2018-07-15T17:12:15.058Z,25.35
2018-07-15T17:14:27.427Z,25.33
2018-07-15T17:16:40.000Z,25.32
2018-07-15T17:18:52.348Z,25.36
2018-07-15T17:21:04.753Z,25.38
2018-07-15T17:23:17.145Z,25.39
2018-07-15T17:25:29.542Z,25.37
2018-07-15T17:27:42.130Z,25.39
2018-07-15T17:29:54.506Z,25.36
2018-07-15T17:32:06.842Z,25.36
2018-07-15T17:34:19.250Z,25.29
2018-07-15T17:36:31.999Z,25.28
2018-07-15T17:38:44.394Z,25.26
2018-07-15T17:40:56.824Z,25.16
2018-07-15T17:43:09.191Z,25.09
2018-07-15T17:45:21.557Z,25.05
2018-07-15T17:47:33.993Z,25.03
2018-07-15T17:49:46.643Z,24.99
2018-07-15T17:51:58.974Z,24.98
2018-07-15T17:54:11.569Z,24.96
2018-07-15T17:56:23.933Z,24.93
2018-07-15T17:58:36.492Z,24.93
2018-07-15T18:00:48.797Z,24.83
2018-07-15T18:03:01.184Z,24.79
2018-07-15T18:05:13.601Z,24.74
2018-07-15T18:07:26.006Z,24.75
2018-07-15T18:09:38.382Z,24.79
2018-07-15T18:11:50.766Z,24.75
2018-07-15T18:14:03.134Z,24.74
2018-07-15T18:16:15.753Z,24.65
2018-07-15T18:18:28.087Z,24.60
2018-07-15T18:20:40.771Z,24.55
2018-07-15T18:22:53.059Z,24.51
2018-07-15T18:25:05.697Z,24.49
2018-07-15T18:27:18.207Z,24.44
2018-07-15T18:29:30.721Z,24.34
2018-07-15T18:31:43.381Z,24.23
2018-07-15T18:33:55.988Z,24.21
2018-07-15T18:36:08.781Z,24.18
2018-07-15T18:38:21.395Z,24.13
2018-07-15T18:40:34.286Z,24.11
2018-07-15T18:42:46.963Z,24.13
2018-07-15T18:44:59.701Z,24.17
2018-07-15T18:47:12.543Z,24.21
2018-07-15T18:49:25.191Z,24.25
2018-07-15T18:51:37.932Z,24.27
2018-07-15T18:53:50.596Z,24.31
2018-07-15T18:56:03.054Z,24.28
2018-07-15T18:58:15.477Z,24.19
2018-07-15T19:00:28.846Z,24.19
2018-07-15T19:02:41.244Z,24.17
2018-07-15T19:04:53.611Z,24.01
2018-07-15T19:07:06.162Z,23.98
2018-07-15T19:09:18.515Z,24.02
2018-07-15T19:11:30.874Z,23.96
2018-07-15T19:13:43.260Z,23.85
2018-07-15T19:15:55.631Z,23.81
2018-07-15T19:18:08.076Z,23.75
2018-07-15T19:20:20.485Z,23.62
2018-07-15T19:22:32.893Z,23.56
2018-07-15T19:24:45.222Z,23.47
2018-07-15T19:26:57.601Z,23.43
2018-07-15T19:29:09.985Z,23.38
2018-07-15T19:31:22.337Z,23.33
2018-07-15T19:33:34.844Z,23.21
2018-07-15T19:35:47.205Z,23.06
2018-07-15T19:37:59.573Z,22.98
2018-07-15T19:40:12.017Z,22.85
2018-07-15T19:42:24.472Z,22.74
2018-07-15T19:44:36.849Z,22.62
2018-07-15T19:46:49.321Z,22.54
2018-07-15T19:49:01.696Z,22.46
2018-07-15T19:51:14.051Z,22.35
2018-07-15T19:53:26.556Z,22.18
2018-07-15T19:55:38.899Z,22.06
2018-07-15T19:57:51.316Z,22.05
2018-07-15T20:00:04.051Z,21.91
2018-07-15T20:02:16.514Z,21.71
2018-07-15T20:04:28.904Z,21.51
2018-07-15T20:06:41.239Z,21.39
2018-07-15T20:08:53.561Z,21.28
2018-07-15T20:11:06.050Z,21.17
2018-07-15T20:13:18.422Z,21.04
2018-07-15T20:15:30.877Z,20.93
2018-07-15T20:17:43.381Z,20.94
2018-07-15T20:19:55.982Z,20.96
2018-07-15T20:22:08.451Z,20.78
2018-07-15T20:24:20.871Z,20.67
2018-07-15T20:26:33.241Z,20.57
2018-07-15T20:28:45.657Z,20.48
2018-07-15T20:30:58.026Z,20.40
2018-07-15T20:33:10.423Z,20.25
2018-07-15T20:35:22.906Z,20.21
2018-07-15T20:37:35.295Z,20.23
2018-07-15T20:39:47.720Z,20.25
2018-07-15T20:42:00.051Z,20.26
2018-07-15T20:44:12.513Z,20.24
2018-07-15T20:46:24.938Z,20.28
2018-07-15T20:48:37.338Z,20.26
2018-07-15T20:50:49.708Z,20.29
2018-07-15T20:53:02.115Z,20.31
2018-07-15T20:55:14.683Z,20.31
2018-07-15T20:57:27.014Z,20.27
2018-07-15T20:59:39.573Z,20.26
2018-07-15T21:01:51.961Z,20.24
2018-07-15T21:04:05.136Z,20.19
2018-07-15T21:06:17.550Z,20.18
2018-07-15T21:08:29.940Z,20.21
2018-07-15T21:10:42.282Z,20.16
2018-07-15T21:12:54.909Z,20.16
2018-07-15T21:15:07.210Z,20.09
2018-07-15T21:17:19.555Z,20.07
2018-07-15T21:19:31.999Z,20.06
2018-07-15T21:21:44.412Z,20.08
2018-07-15T21:23:56.813Z,20.12
2018-07-15T21:26:09.298Z,20.15
2018-07-15T21:28:21.722Z,20.07
2018-07-15T21:30:34.123Z,20.14
2018-07-15T21:32:46.549Z,20.10
2018-07-15T21:34:58.917Z,20.06
2018-07-15T21:37:11.301Z,20.06
2018-07-15T21:39:23.687Z,20.12
2018-07-15T21:41:36.038Z,20.19
2018-07-15T21:43:48.402Z,20.23
2018-07-15T21:46:00.814Z,20.24
2018-07-15T21:48:13.223Z,20.24
2018-07-15T21:50:25.599Z,20.25
2018-07-15T21:52:37.934Z,20.23
2018-07-15T21:54:50.349Z,20.31
2018-07-15T21:57:02.757Z,20.34
2018-07-15T21:59:15.114Z,20.37
2018-07-15T22:01:43.484Z,20.42
2018-07-15T22:03:55.851Z,20.40
2018-07-15T22:06:18.334Z,20.43
2018-07-15T22:08:40.999Z,20.41
2018-07-15T22:10:53.385Z,20.42
2018-07-15T22:13:05.736Z,20.37
2018-07-15T22:15:18.186Z,20.34
2018-07-15T22:17:30.594Z,20.39
2018-07-15T22:19:43.439Z,20.43
2018-07-15T22:21:55.818Z,20.46
2018-07-15T22:24:08.119Z,20.50
2018-07-15T22:26:20.509Z,20.53
2018-07-15T22:28:32.834Z,20.54
2018-07-15T22:30:45.157Z,20.50
2018-07-15T22:32:57.605Z,20.53
2018-07-15T22:35:10.041Z,20.58
2018-07-15T22:37:22.418Z,20.62
2018-07-15T22:39:34.854Z,20.63
2018-07-15T22:41:47.322Z,20.61
2018-07-15T22:43:59.634Z,20.64
2018-07-15T22:46:11.974Z,20.64
2018-07-15T22:48:24.381Z,20.65
2018-07-15T22:50:36.802Z,20.67
2018-07-15T22:52:49.226Z,20.67
2018-07-15T22:55:01.614Z,20.66
2018-07-15T22:57:14.035Z,20.66
2018-07-15T22:59:26.341Z,20.69
2018-07-15T23:01:38.909Z,20.69
2018-07-15T23:03:51.275Z,20.69
2018-07-15T23:06:14.910Z,20.70
2018-07-15T23:08:28.462Z,20.69
2018-07-15T23:10:40.871Z,20.66
2018-07-15T23:12:53.413Z,20.60
2018-07-15T23:15:05.855Z,20.53
2018-07-15T23:17:18.161Z,20.43
2018-07-15T23:19:30.586Z,20.37
2018-07-15T23:21:42.969Z,20.34
2018-07-15T23:23:55.294Z,20.30
2018-07-15T23:26:07.934Z,20.30
2018-07-15T23:28:20.237Z,20.22
2018-07-15T23:30:33.253Z,20.13
2018-07-15T23:32:45.636Z,20.05
2018-07-15T23:34:58.110Z,20.02
2018-07-15T23:37:10.474Z,19.98
2018-07-15T23:39:22.840Z,20.03
2018-07-15T23:41:35.189Z,20.08
2018-07-15T23:43:47.509Z,20.05
2018-07-15T23:45:59.893Z,20.04
2018-07-15T23:48:12.174Z,20.02
2018-07-15T23:50:24.593Z,20.07
2018-07-15T23:52:36.951Z,20.06
2018-07-15T23:54:49.354Z,20.05
2018-07-15T23:57:01.719Z,20.07
2018-07-15T23:59:14.280Z,20.10
